Hovedside
METAR-TAF:

METAR-TAF

Lufthavner :

Paro lufthavn

Thimpu, India

breddegrad: 27-24-32N, lengdegrad: 89-25-14E, høyde over havet: 2235 m

Gjeldene værobservasjon

Denne rapporten ble laget for 27 minutter siden, klokken 01:30 UTC
Vind 3 kt fra Sør-sørøst, skiftende mellom Øst og Sør-sørvest
Temperatur 17°C
Luftfuktighet 82%
Trykk 1015 hPa
Sikt: 7000 m
Få skyer i en høyde av 1500 ft
Spredte skyer i en høyde av 2500 ft
Overskyet i en høyde av 4500 ft

METAR: VQPR 200130Z 15003KT 100V210 7000 FEW015 SCT025 OVC045 17/14 Q1015

Tid: 07:57 (01:57 UTC)


TAF: fraværende

Værobservasjoner og værvarsel for over 4000 flyplasser (METAR- og TAF-rapporter).

Tilgjengelige stasjoner er representert av de røde og gule prikkene på kartet.

Hold musepekeren over prikken for å se navnet på stasjonen.

Klikk så for å se værobservasjoner og -varsler.

For å forandre kartet kan du klikke på den grønne knappen med svart kryss for å zoome inn, på den grønne knappen med strek for å zoome ut, eller på de grønne pilene for å se tilstøtende kart.


METAR-TAF: